sensor_id;sensor_type;location;lat;lon;timestamp;P1;durP1;ratioP1;P2;durP2;ratioP2
42886;SDS011;29032;56.028;92.904;2022-08-19T00:01:46;2.33;;;1.90;;
42886;SDS011;29032;56.028;92.904;2022-08-19T00:06:49;2.13;;;1.90;;
42886;SDS011;29032;56.028;92.904;2022-08-19T00:11:52;3.37;;;1.97;;
42886;SDS011;29032;56.028;92.904;2022-08-19T00:16:55;3.93;;;2.10;;
42886;SDS011;29032;56.028;92.904;2022-08-19T00:21:57;4.20;;;2.03;;
42886;SDS011;29032;56.028;92.904;2022-08-19T00:27:01;5.27;;;2.37;;
42886;SDS011;29032;56.028;92.904;2022-08-19T00:32:03;2.57;;;2.10;;
42886;SDS011;29032;56.028;92.904;2022-08-19T00:37:06;4.70;;;2.30;;
42886;SDS011;29032;56.028;92.904;2022-08-19T00:42:09;2.87;;;2.23;;
42886;SDS011;29032;56.028;92.904;2022-08-19T00:47:11;7.03;;;3.00;;
42886;SDS011;29032;56.028;92.904;2022-08-19T00:52:15;3.63;;;2.50;;
42886;SDS011;29032;56.028;92.904;2022-08-19T00:57:23;7.00;;;2.60;;
42886;SDS011;29032;56.028;92.904;2022-08-19T01:02:31;4.37;;;2.40;;
42886;SDS011;29032;56.028;92.904;2022-08-19T01:07:34;5.00;;;2.90;;
42886;SDS011;29032;56.028;92.904;2022-08-19T01:12:38;6.10;;;2.40;;
42886;SDS011;29032;56.028;92.904;2022-08-19T01:17:41;6.40;;;2.80;;
42886;SDS011;29032;56.028;92.904;2022-08-19T01:22:46;6.03;;;2.80;;
42886;SDS011;29032;56.028;92.904;2022-08-19T01:27:50;8.50;;;2.80;;
42886;SDS011;29032;56.028;92.904;2022-08-19T01:32:53;7.43;;;3.37;;
42886;SDS011;29032;56.028;92.904;2022-08-19T01:37:59;5.67;;;3.33;;
42886;SDS011;29032;56.028;92.904;2022-08-19T01:43:02;6.20;;;4.03;;
42886;SDS011;29032;56.028;92.904;2022-08-19T01:48:05;7.17;;;3.90;;
42886;SDS011;29032;56.028;92.904;2022-08-19T01:53:09;5.20;;;3.33;;
42886;SDS011;29032;56.028;92.904;2022-08-19T01:58:13;6.73;;;2.83;;
42886;SDS011;29032;56.028;92.904;2022-08-19T02:03:18;3.90;;;2.23;;
42886;SDS011;29032;56.028;92.904;2022-08-19T02:08:21;4.90;;;2.77;;
42886;SDS011;29032;56.028;92.904;2022-08-19T02:13:24;3.83;;;2.57;;
42886;SDS011;29032;56.028;92.904;2022-08-19T02:18:27;3.13;;;2.50;;
42886;SDS011;29032;56.028;92.904;2022-08-19T02:23:31;5.50;;;2.83;;
42886;SDS011;29032;56.028;92.904;2022-08-19T02:28:33;4.60;;;3.03;;
42886;SDS011;29032;56.028;92.904;2022-08-19T02:33:35;5.53;;;3.63;;
42886;SDS011;29032;56.028;92.904;2022-08-19T02:38:39;10.70;;;4.80;;
42886;SDS011;29032;56.028;92.904;2022-08-19T02:43:42;5.57;;;3.63;;
42886;SDS011;29032;56.028;92.904;2022-08-19T02:48:44;6.20;;;3.43;;
42886;SDS011;29032;56.028;92.904;2022-08-19T02:53:48;3.80;;;2.53;;
42886;SDS011;29032;56.028;92.904;2022-08-19T02:58:50;3.77;;;2.47;;
42886;SDS011;29032;56.028;92.904;2022-08-19T03:03:53;6.77;;;3.20;;
42886;SDS011;29032;56.028;92.904;2022-08-19T03:08:57;2.60;;;2.27;;
42886;SDS011;29032;56.028;92.904;2022-08-19T03:14:00;5.87;;;3.40;;
42886;SDS011;29032;56.028;92.904;2022-08-19T03:19:02;4.90;;;3.40;;
42886;SDS011;29032;56.028;92.904;2022-08-19T03:24:07;4.30;;;2.80;;
42886;SDS011;29032;56.028;92.904;2022-08-19T03:29:09;3.63;;;2.80;;
42886;SDS011;29032;56.028;92.904;2022-08-19T03:34:12;3.13;;;2.67;;
42886;SDS011;29032;56.028;92.904;2022-08-19T03:39:18;3.03;;;2.67;;
42886;SDS011;29032;56.028;92.904;2022-08-19T03:44:21;3.43;;;2.80;;
42886;SDS011;29032;56.028;92.904;2022-08-19T03:49:24;4.23;;;3.13;;
42886;SDS011;29032;56.028;92.904;2022-08-19T03:54:29;4.83;;;3.37;;
42886;SDS011;29032;56.028;92.904;2022-08-19T03:59:31;6.63;;;4.77;;
42886;SDS011;29032;56.028;92.904;2022-08-19T04:04:36;7.27;;;3.30;;
42886;SDS011;29032;56.028;92.904;2022-08-19T04:09:40;9.43;;;7.60;;
42886;SDS011;29032;56.028;92.904;2022-08-19T04:14:42;5.23;;;3.93;;
42886;SDS011;29032;56.028;92.904;2022-08-19T04:19:44;4.27;;;3.20;;
42886;SDS011;29032;56.028;92.904;2022-08-19T04:24:48;5.80;;;3.50;;
42886;SDS011;29032;56.028;92.904;2022-08-19T04:29:50;4.50;;;3.63;;
42886;SDS011;29032;56.028;92.904;2022-08-19T04:34:52;3.57;;;3.13;;
42886;SDS011;29032;56.028;92.904;2022-08-19T04:39:55;4.00;;;3.27;;
42886;SDS011;29032;56.028;92.904;2022-08-19T04:44:57;3.60;;;3.00;;
42886;SDS011;29032;56.028;92.904;2022-08-19T04:50:00;3.97;;;2.83;;
42886;SDS011;29032;56.028;92.904;2022-08-19T04:55:04;4.47;;;3.20;;
42886;SDS011;29032;56.028;92.904;2022-08-19T05:00:08;3.70;;;3.00;;
42886;SDS011;29032;56.028;92.904;2022-08-19T05:05:11;3.53;;;2.37;;
42886;SDS011;29032;56.028;92.904;2022-08-19T05:10:14;4.23;;;2.87;;
42886;SDS011;29032;56.028;92.904;2022-08-19T05:15:16;8.17;;;4.43;;
42886;SDS011;29032;56.028;92.904;2022-08-19T05:20:19;4.27;;;2.80;;
42886;SDS011;29032;56.028;92.904;2022-08-19T05:25:22;4.20;;;2.70;;
42886;SDS011;29032;56.028;92.904;2022-08-19T05:30:24;5.37;;;2.90;;
42886;SDS011;29032;56.028;92.904;2022-08-19T05:35:26;2.90;;;2.60;;
42886;SDS011;29032;56.028;92.904;2022-08-19T05:40:30;2.90;;;2.43;;
42886;SDS011;29032;56.028;92.904;2022-08-19T05:45:32;3.87;;;3.00;;
42886;SDS011;29032;56.028;92.904;2022-08-19T05:50:41;2.70;;;1.90;;
42886;SDS011;29032;56.028;92.904;2022-08-19T05:55:44;2.53;;;1.80;;
42886;SDS011;29032;56.028;92.904;2022-08-19T06:00:46;2.10;;;1.90;;
42886;SDS011;29032;56.028;92.904;2022-08-19T06:05:48;2.43;;;2.03;;
42886;SDS011;29032;56.028;92.904;2022-08-19T06:10:52;3.50;;;2.27;;
42886;SDS011;29032;56.028;92.904;2022-08-19T06:15:54;3.10;;;2.20;;
42886;SDS011;29032;56.028;92.904;2022-08-19T06:20:57;4.10;;;2.00;;
42886;SDS011;29032;56.028;92.904;2022-08-19T06:26:00;4.10;;;2.73;;
42886;SDS011;29032;56.028;92.904;2022-08-19T06:31:05;6.00;;;2.73;;
42886;SDS011;29032;56.028;92.904;2022-08-19T06:36:15;4.80;;;2.78;;
42886;SDS011;29032;56.028;92.904;2022-08-19T06:41:20;7.03;;;3.37;;
42886;SDS011;29032;56.028;92.904;2022-08-19T06:46:22;6.13;;;2.60;;
42886;SDS011;29032;56.028;92.904;2022-08-19T06:51:25;5.30;;;2.90;;
42886;SDS011;29032;56.028;92.904;2022-08-19T06:56:29;4.57;;;2.50;;
42886;SDS011;29032;56.028;92.904;2022-08-19T07:01:34;3.33;;;2.10;;
42886;SDS011;29032;56.028;92.904;2022-08-19T07:06:37;6.20;;;2.43;;
42886;SDS011;29032;56.028;92.904;2022-08-19T07:11:45;2.00;;;1.90;;
42886;SDS011;29032;56.028;92.904;2022-08-19T07:16:49;3.10;;;2.10;;
42886;SDS011;29032;56.028;92.904;2022-08-19T07:21:52;4.13;;;2.20;;
42886;SDS011;29032;56.028;92.904;2022-08-19T07:26:58;3.50;;;2.30;;
42886;SDS011;29032;56.028;92.904;2022-08-19T07:32:01;4.03;;;2.13;;
42886;SDS011;29032;56.028;92.904;2022-08-19T07:37:05;3.27;;;1.97;;
42886;SDS011;29032;56.028;92.904;2022-08-19T07:42:10;4.80;;;2.23;;
42886;SDS011;29032;56.028;92.904;2022-08-19T07:47:12;3.17;;;2.00;;
42886;SDS011;29032;56.028;92.904;2022-08-19T07:52:14;2.83;;;2.03;;
42886;SDS011;29032;56.028;92.904;2022-08-19T07:57:18;2.63;;;1.90;;
42886;SDS011;29032;56.028;92.904;2022-08-19T08:02:20;4.00;;;2.10;;
42886;SDS011;29032;56.028;92.904;2022-08-19T08:07:22;3.67;;;1.90;;
42886;SDS011;29032;56.028;92.904;2022-08-19T08:12:26;2.70;;;1.80;;
42886;SDS011;29032;56.028;92.904;2022-08-19T08:17:30;2.07;;;1.70;;
42886;SDS011;29032;56.028;92.904;2022-08-19T08:22:32;6.30;;;2.00;;
42886;SDS011;29032;56.028;92.904;2022-08-19T08:27:36;3.23;;;1.77;;
42886;SDS011;29032;56.028;92.904;2022-08-19T08:32:39;2.80;;;1.60;;
42886;SDS011;29032;56.028;92.904;2022-08-19T08:37:42;7.40;;;2.73;;
42886;SDS011;29032;56.028;92.904;2022-08-19T08:42:47;3.20;;;1.60;;
42886;SDS011;29032;56.028;92.904;2022-08-19T08:47:57;2.47;;;1.73;;
42886;SDS011;29032;56.028;92.904;2022-08-19T08:53:03;2.13;;;1.60;;
42886;SDS011;29032;56.028;92.904;2022-08-19T08:58:09;3.60;;;1.80;;
42886;SDS011;29032;56.028;92.904;2022-08-19T09:03:17;2.00;;;1.40;;
42886;SDS011;29032;56.028;92.904;2022-08-19T09:08:22;2.50;;;1.50;;
42886;SDS011;29032;56.028;92.904;2022-08-19T09:13:37;2.07;;;1.60;;
42886;SDS011;29032;56.028;92.904;2022-08-19T09:18:43;2.88;;;1.40;;
42886;SDS011;29032;56.028;92.904;2022-08-19T09:23:47;1.10;;;1.00;;
42886;SDS011;29032;56.028;92.904;2022-08-19T09:28:51;2.58;;;1.27;;
42886;SDS011;29032;56.028;92.904;2022-08-19T09:33:54;2.20;;;2.00;;
42886;SDS011;29032;56.028;92.904;2022-08-19T09:38:56;1.70;;;1.25;;
42886;SDS011;29032;56.028;92.904;2022-08-19T09:43:59;2.45;;;1.35;;
42886;SDS011;29032;56.028;92.904;2022-08-19T09:49:02;2.03;;;1.10;;
42886;SDS011;29032;56.028;92.904;2022-08-19T09:54:04;2.70;;;1.17;;
42886;SDS011;29032;56.028;92.904;2022-08-19T09:59:08;1.02;;;1.00;;
42886;SDS011;29032;56.028;92.904;2022-08-19T10:04:10;1.80;;;1.27;;
42886;SDS011;29032;56.028;92.904;2022-08-19T10:09:12;5.70;;;1.02;;
42886;SDS011;29032;56.028;92.904;2022-08-19T10:14:17;1.27;;;1.17;;
42886;SDS011;29032;56.028;92.904;2022-08-19T10:19:19;3.80;;;1.15;;
42886;SDS011;29032;56.028;92.904;2022-08-19T10:24:21;2.53;;;1.70;;
42886;SDS011;29032;56.028;92.904;2022-08-19T10:29:25;1.10;;;1.00;;
42886;SDS011;29032;56.028;92.904;2022-08-19T10:34:28;1.85;;;1.65;;
42886;SDS011;29032;56.028;92.904;2022-08-19T10:39:31;3.42;;;3.08;;
42886;SDS011;29032;56.028;92.904;2022-08-19T10:44:35;2.03;;;1.45;;
42886;SDS011;29032;56.028;92.904;2022-08-19T10:49:38;1.80;;;1.20;;
42886;SDS011;29032;56.028;92.904;2022-08-19T10:54:40;1.73;;;1.13;;
42886;SDS011;29032;56.028;92.904;2022-08-19T10:59:43;1.77;;;1.40;;
42886;SDS011;29032;56.028;92.904;2022-08-19T11:04:46;1.45;;;1.20;;
42886;SDS011;29032;56.028;92.904;2022-08-19T11:09:48;2.08;;;1.30;;
42886;SDS011;29032;56.028;92.904;2022-08-19T11:14:51;2.72;;;1.33;;
42886;SDS011;29032;56.028;92.904;2022-08-19T11:19:53;1.63;;;1.25;;
42886;SDS011;29032;56.028;92.904;2022-08-19T11:24:56;1.42;;;1.30;;
42886;SDS011;29032;56.028;92.904;2022-08-19T11:29:59;1.42;;;1.27;;
42886;SDS011;29032;56.028;92.904;2022-08-19T11:35:01;1.80;;;1.42;;
42886;SDS011;29032;56.028;92.904;2022-08-19T11:40:04;2.85;;;1.50;;
42886;SDS011;29032;56.028;92.904;2022-08-19T11:45:09;3.35;;;2.75;;
42886;SDS011;29032;56.028;92.904;2022-08-19T11:50:11;1.98;;;1.77;;
42886;SDS011;29032;56.028;92.904;2022-08-19T11:55:13;3.65;;;2.08;;
42886;SDS011;29032;56.028;92.904;2022-08-19T12:00:17;2.35;;;1.83;;
42886;SDS011;29032;56.028;92.904;2022-08-19T12:05:19;7.10;;;5.05;;
42886;SDS011;29032;56.028;92.904;2022-08-19T12:10:21;3.88;;;2.40;;
42886;SDS011;29032;56.028;92.904;2022-08-19T12:15:25;4.65;;;3.20;;
42886;SDS011;29032;56.028;92.904;2022-08-19T12:20:28;4.00;;;2.60;;
42886;SDS011;29032;56.028;92.904;2022-08-19T12:25:30;4.85;;;3.25;;
42886;SDS011;29032;56.028;92.904;2022-08-19T12:30:34;2.95;;;2.53;;
42886;SDS011;29032;56.028;92.904;2022-08-19T12:40:41;3.88;;;2.47;;
42886;SDS011;29032;56.028;92.904;2022-08-19T12:45:48;4.43;;;2.10;;
42886;SDS011;29032;56.028;92.904;2022-08-19T12:50:50;3.23;;;1.80;;
42886;SDS011;29032;56.028;92.904;2022-08-19T12:55:54;3.50;;;2.17;;
42886;SDS011;29032;56.028;92.904;2022-08-19T13:00:58;6.22;;;2.75;;
42886;SDS011;29032;56.028;92.904;2022-08-19T13:06:00;4.57;;;2.33;;
42886;SDS011;29032;56.028;92.904;2022-08-19T13:11:09;3.40;;;2.88;;
42886;SDS011;29032;56.028;92.904;2022-08-19T13:16:14;3.22;;;2.30;;
42886;SDS011;29032;56.028;92.904;2022-08-19T13:21:16;3.45;;;2.50;;
42886;SDS011;29032;56.028;92.904;2022-08-19T13:26:18;4.55;;;3.20;;
42886;SDS011;29032;56.028;92.904;2022-08-19T13:31:23;4.60;;;2.40;;
42886;SDS011;29032;56.028;92.904;2022-08-19T13:36:26;4.20;;;3.00;;
42886;SDS011;29032;56.028;92.904;2022-08-19T13:41:28;3.03;;;2.63;;
42886;SDS011;29032;56.028;92.904;2022-08-19T13:46:32;3.60;;;3.10;;
42886;SDS011;29032;56.028;92.904;2022-08-19T13:51:34;4.27;;;2.83;;
42886;SDS011;29032;56.028;92.904;2022-08-19T13:56:39;5.43;;;3.57;;
42886;SDS011;29032;56.028;92.904;2022-08-19T14:01:43;6.55;;;3.72;;
42886;SDS011;29032;56.028;92.904;2022-08-19T14:06:45;4.43;;;2.95;;
42886;SDS011;29032;56.028;92.904;2022-08-19T14:11:47;4.25;;;3.25;;
42886;SDS011;29032;56.028;92.904;2022-08-19T14:16:51;5.18;;;3.15;;
42886;SDS011;29032;56.028;92.904;2022-08-19T14:21:54;6.18;;;3.30;;
42886;SDS011;29032;56.028;92.904;2022-08-19T14:26:57;4.00;;;2.87;;
42886;SDS011;29032;56.028;92.904;2022-08-19T14:32:00;6.53;;;3.00;;
42886;SDS011;29032;56.028;92.904;2022-08-19T14:37:03;2.97;;;2.63;;
42886;SDS011;29032;56.028;92.904;2022-08-19T14:42:06;3.23;;;2.30;;
42886;SDS011;29032;56.028;92.904;2022-08-19T14:47:10;3.83;;;2.60;;
42886;SDS011;29032;56.028;92.904;2022-08-19T14:52:12;3.57;;;2.33;;
42886;SDS011;29032;56.028;92.904;2022-08-19T14:57:14;4.57;;;2.80;;
42886;SDS011;29032;56.028;92.904;2022-08-19T15:02:18;4.60;;;2.50;;
42886;SDS011;29032;56.028;92.904;2022-08-19T15:07:20;4.10;;;3.17;;
42886;SDS011;29032;56.028;92.904;2022-08-19T15:12:22;3.10;;;2.30;;
42886;SDS011;29032;56.028;92.904;2022-08-19T15:17:26;6.30;;;2.33;;
42886;SDS011;29032;56.028;92.904;2022-08-19T15:22:28;4.87;;;2.70;;
42886;SDS011;29032;56.028;92.904;2022-08-19T15:27:30;5.27;;;2.73;;
42886;SDS011;29032;56.028;92.904;2022-08-19T15:32:34;3.43;;;3.13;;
42886;SDS011;29032;56.028;92.904;2022-08-19T15:37:36;3.13;;;2.53;;
42886;SDS011;29032;56.028;92.904;2022-08-19T15:42:38;7.20;;;2.43;;
42886;SDS011;29032;56.028;92.904;2022-08-19T15:47:42;5.33;;;2.73;;
42886;SDS011;29032;56.028;92.904;2022-08-19T15:52:45;2.93;;;2.17;;
42886;SDS011;29032;56.028;92.904;2022-08-19T15:57:48;4.93;;;2.80;;
42886;SDS011;29032;56.028;92.904;2022-08-19T16:02:52;3.07;;;2.57;;
42886;SDS011;29032;56.028;92.904;2022-08-19T16:07:54;5.17;;;2.80;;
42886;SDS011;29032;56.028;92.904;2022-08-19T16:12:56;4.97;;;3.40;;
42886;SDS011;29032;56.028;92.904;2022-08-19T16:18:00;3.70;;;3.33;;
42886;SDS011;29032;56.028;92.904;2022-08-19T16:23:02;5.47;;;3.07;;
42886;SDS011;29032;56.028;92.904;2022-08-19T16:28:04;7.00;;;4.13;;
42886;SDS011;29032;56.028;92.904;2022-08-19T16:33:08;6.53;;;4.57;;
42886;SDS011;29032;56.028;92.904;2022-08-19T16:38:11;7.67;;;4.63;;
42886;SDS011;29032;56.028;92.904;2022-08-19T16:43:13;7.47;;;4.20;;
42886;SDS011;29032;56.028;92.904;2022-08-19T16:48:17;6.70;;;4.63;;
42886;SDS011;29032;56.028;92.904;2022-08-19T16:53:19;7.33;;;4.47;;
42886;SDS011;29032;56.028;92.904;2022-08-19T16:58:23;4.77;;;3.80;;
42886;SDS011;29032;56.028;92.904;2022-08-19T17:03:28;5.33;;;3.03;;
42886;SDS011;29032;56.028;92.904;2022-08-19T17:08:31;4.37;;;2.90;;
42886;SDS011;29032;56.028;92.904;2022-08-19T17:13:33;4.20;;;3.30;;
42886;SDS011;29032;56.028;92.904;2022-08-19T17:18:37;4.97;;;3.23;;
42886;SDS011;29032;56.028;92.904;2022-08-19T17:23:39;3.80;;;2.57;;
42886;SDS011;29032;56.028;92.904;2022-08-19T17:28:42;3.17;;;2.47;;
42886;SDS011;29032;56.028;92.904;2022-08-19T17:33:46;5.97;;;2.83;;
42886;SDS011;29032;56.028;92.904;2022-08-19T17:38:48;3.23;;;2.63;;
42886;SDS011;29032;56.028;92.904;2022-08-19T17:43:53;4.50;;;3.10;;
42886;SDS011;29032;56.028;92.904;2022-08-19T17:48:56;3.90;;;3.20;;
42886;SDS011;29032;56.028;92.904;2022-08-19T17:53:58;4.23;;;3.53;;
42886;SDS011;29032;56.028;92.904;2022-08-19T17:59:01;4.40;;;2.77;;
42886;SDS011;29032;56.028;92.904;2022-08-19T18:04:04;3.53;;;2.60;;
42886;SDS011;29032;56.028;92.904;2022-08-19T18:09:06;5.13;;;2.80;;
42886;SDS011;29032;56.028;92.904;2022-08-19T18:14:09;4.03;;;2.90;;
42886;SDS011;29032;56.028;92.904;2022-08-19T18:19:12;5.97;;;2.70;;
42886;SDS011;29032;56.028;92.904;2022-08-19T18:24:14;4.03;;;2.70;;
42886;SDS011;29032;56.028;92.904;2022-08-19T18:29:17;3.47;;;2.80;;
42886;SDS011;29032;56.028;92.904;2022-08-19T18:34:20;5.73;;;2.90;;
42886;SDS011;29032;56.028;92.904;2022-08-19T18:39:22;3.00;;;2.60;;
42886;SDS011;29032;56.028;92.904;2022-08-19T18:44:24;5.23;;;2.40;;
42886;SDS011;29032;56.028;92.904;2022-08-19T18:49:29;4.63;;;2.63;;
42886;SDS011;29032;56.028;92.904;2022-08-19T18:54:32;5.67;;;2.50;;
42886;SDS011;29032;56.028;92.904;2022-08-19T18:59:34;3.27;;;2.20;;
42886;SDS011;29032;56.028;92.904;2022-08-19T19:04:38;5.80;;;2.40;;
42886;SDS011;29032;56.028;92.904;2022-08-19T19:09:40;3.37;;;2.20;;
42886;SDS011;29032;56.028;92.904;2022-08-19T19:14:42;3.47;;;2.20;;
42886;SDS011;29032;56.028;92.904;2022-08-19T19:19:46;2.77;;;1.90;;
42886;SDS011;29032;56.028;92.904;2022-08-19T19:24:48;2.47;;;1.80;;
42886;SDS011;29032;56.028;92.904;2022-08-19T19:29:51;6.10;;;2.90;;
42886;SDS011;29032;56.028;92.904;2022-08-19T19:34:54;3.73;;;1.67;;
42886;SDS011;29032;56.028;92.904;2022-08-19T19:39:57;2.50;;;1.87;;
42886;SDS011;29032;56.028;92.904;2022-08-19T19:44:59;3.47;;;2.10;;
42886;SDS011;29032;56.028;92.904;2022-08-19T19:50:02;4.00;;;2.33;;
42886;SDS011;29032;56.028;92.904;2022-08-19T19:55:05;3.23;;;2.10;;
42886;SDS011;29032;56.028;92.904;2022-08-19T20:00:08;3.83;;;2.13;;
42886;SDS011;29032;56.028;92.904;2022-08-19T20:05:12;4.07;;;2.27;;
42886;SDS011;29032;56.028;92.904;2022-08-19T20:10:14;3.13;;;1.90;;
42886;SDS011;29032;56.028;92.904;2022-08-19T20:15:17;3.07;;;2.10;;
42886;SDS011;29032;56.028;92.904;2022-08-19T20:20:20;3.23;;;2.00;;
42886;SDS011;29032;56.028;92.904;2022-08-19T20:25:23;3.43;;;2.43;;
42886;SDS011;29032;56.028;92.904;2022-08-19T20:30:25;2.63;;;2.00;;
42886;SDS011;29032;56.028;92.904;2022-08-19T20:35:29;2.67;;;2.10;;
42886;SDS011;29032;56.028;92.904;2022-08-19T20:40:31;2.93;;;1.80;;
42886;SDS011;29032;56.028;92.904;2022-08-19T20:45:33;3.43;;;1.90;;
42886;SDS011;29032;56.028;92.904;2022-08-19T20:50:37;3.30;;;1.90;;
42886;SDS011;29032;56.028;92.904;2022-08-19T20:55:41;3.90;;;2.10;;
42886;SDS011;29032;56.028;92.904;2022-08-19T21:00:44;4.97;;;1.90;;
42886;SDS011;29032;56.028;92.904;2022-08-19T21:05:49;6.93;;;2.50;;
42886;SDS011;29032;56.028;92.904;2022-08-19T21:10:51;2.83;;;2.00;;
42886;SDS011;29032;56.028;92.904;2022-08-19T21:15:55;5.17;;;2.43;;
42886;SDS011;29032;56.028;92.904;2022-08-19T21:20:58;4.90;;;2.20;;
42886;SDS011;29032;56.028;92.904;2022-08-19T21:26:00;2.80;;;2.20;;
42886;SDS011;29032;56.028;92.904;2022-08-19T21:31:03;3.37;;;2.13;;
42886;SDS011;29032;56.028;92.904;2022-08-19T21:36:08;5.60;;;2.53;;
42886;SDS011;29032;56.028;92.904;2022-08-19T21:41:10;2.43;;;2.13;;
42886;SDS011;29032;56.028;92.904;2022-08-19T21:46:12;3.90;;;2.43;;
42886;SDS011;29032;56.028;92.904;2022-08-19T21:51:16;3.27;;;2.60;;
42886;SDS011;29032;56.028;92.904;2022-08-19T21:56:18;3.37;;;2.53;;
42886;SDS011;29032;56.028;92.904;2022-08-19T22:01:20;4.93;;;2.80;;
42886;SDS011;29032;56.028;92.904;2022-08-19T22:06:24;2.80;;;2.50;;
42886;SDS011;29032;56.028;92.904;2022-08-19T22:11:26;3.47;;;2.23;;
42886;SDS011;29032;56.028;92.904;2022-08-19T22:16:28;3.27;;;2.73;;
42886;SDS011;29032;56.028;92.904;2022-08-19T22:21:32;3.67;;;2.63;;
42886;SDS011;29032;56.028;92.904;2022-08-19T22:26:34;8.57;;;2.73;;
42886;SDS011;29032;56.028;92.904;2022-08-19T22:31:37;4.03;;;2.60;;
42886;SDS011;29032;56.028;92.904;2022-08-19T22:36:40;3.33;;;2.77;;
42886;SDS011;29032;56.028;92.904;2022-08-19T22:41:42;3.73;;;2.27;;
42886;SDS011;29032;56.028;92.904;2022-08-19T22:46:44;3.97;;;2.80;;
42886;SDS011;29032;56.028;92.904;2022-08-19T22:51:48;5.57;;;2.70;;
42886;SDS011;29032;56.028;92.904;2022-08-19T22:56:50;3.53;;;2.80;;
42886;SDS011;29032;56.028;92.904;2022-08-19T23:01:52;5.63;;;2.90;;
42886;SDS011;29032;56.028;92.904;2022-08-19T23:06:56;4.57;;;3.17;;
42886;SDS011;29032;56.028;92.904;2022-08-19T23:11:58;4.07;;;2.50;;
42886;SDS011;29032;56.028;92.904;2022-08-19T23:17:00;4.27;;;2.80;;
42886;SDS011;29032;56.028;92.904;2022-08-19T23:22:03;3.77;;;3.23;;
42886;SDS011;29032;56.028;92.904;2022-08-19T23:27:06;3.23;;;2.90;;
42886;SDS011;29032;56.028;92.904;2022-08-19T23:32:08;4.40;;;3.50;;
42886;SDS011;29032;56.028;92.904;2022-08-19T23:37:11;3.87;;;2.70;;
42886;SDS011;29032;56.028;92.904;2022-08-19T23:42:13;4.60;;;3.07;;
42886;SDS011;29032;56.028;92.904;2022-08-19T23:47:15;5.00;;;2.97;;
42886;SDS011;29032;56.028;92.904;2022-08-19T23:52:19;4.27;;;3.10;;
42886;SDS011;29032;56.028;92.904;2022-08-19T23:57:21;5.90;;;3.30;;
